Andrewsfield, United Kingdom

9:32 AM GMT on November 01, 2014 (GMT +0000)
IESSEXRA4 | Change Station
CLOSE
Current Station
Personal Weather Station
Location: Rayne, ESSEX
Elevation: 226 ft
Nearby Weather Stations

Elev 226 ft 51.88 °N, 0.50 °E | Updated 1 second ago

Light Rain
Light Rain
59.1 °F
Feels Like 59.1 °F
N
3.8
Wind Variable Wind from ENE
Gusts 3.8 mph

Today
High -- | Low -- °F
--% Chance of Precip.
Yesterday
High -- | Low -- °F
Precip. -- in
6:52 AM 4:30 PM
Waxing Gibbous, 64% visible
Pressure 30.01 in
Visibility 6.2 miles
Clouds Scattered Clouds 1100 ft
Mostly Cloudy 2000 ft
Dew Point 58 °F
Humidity 95%
Rainfall 0.00 in
Snow Depth Not available.
UV 1 out of 12
Pollen Not available.
Air Quality Not available.
Flu Activity Not available.
METAR EGSS 010920Z 26007KT 9999 -RA SCT011 BKN020 15/12 Q1016

More Conditions Fewer Conditions

Pressure 30.01 in
Visibility 6.2 miles
Clouds Scattered Clouds 1100 ft
Mostly Cloudy 2000 ft
Dew Point 58 °F
Humidity 95%
Rainfall 0.00 in
Snow Depth Not available.
UV 1 out of 12
Pollen Not available.
Air Quality Not available.
Flu Activity Not available.
METAR EGSS 010920Z 26007KT 9999 -RA SCT011 BKN020 15/12 Q1016

More Conditions Fewer Conditions

10-Day Weather Forecast

Almanac

Astronomy

Nov. 01, 2014 Rise Set
Actual Time
Civil Twilight
Nautical Twilight
Astronomical Twilight
Moon
Length of Visible Light
Length of Day
Tomorrow will be .
, % of the Moon is Illuminated

Today's Extremes

Country Highs Country Lows

Community

WunderPhotos

Upload Photos

1,766,872 photos uploaded!

WunderBlogs® & News

Nearby

Air Quality

  Air Quality AQ Index Pollutant
Not available.

Snow Depth

Station Depth Elevation

Earthquake Activity

City Distance Mag. Time & Date
Minimum magnitude displayed is 2.5.

Coastal Water Temperatures

Place Temperature

Nearby Weather Stations